sensor_id;sensor_type;location;lat;lon;timestamp;temperature;humidity
10143;DHT22;5112;54.088;13.446;2024-01-15T00:00:27;2.50;99.90
10143;DHT22;5112;54.088;13.446;2024-01-15T00:10:28;2.40;99.90
10143;DHT22;5112;54.088;13.446;2024-01-15T00:20:31;2.30;99.90
10143;DHT22;5112;54.088;13.446;2024-01-15T00:30:33;2.30;99.90
10143;DHT22;5112;54.088;13.446;2024-01-15T00:40:36;2.30;99.90
10143;DHT22;5112;54.088;13.446;2024-01-15T00:50:38;2.10;99.90
10143;DHT22;5112;54.088;13.446;2024-01-15T01:00:41;1.90;99.90
10143;DHT22;5112;54.088;13.446;2024-01-15T01:10:42;1.90;99.90
10143;DHT22;5112;54.088;13.446;2024-01-15T01:20:45;1.90;99.90
10143;DHT22;5112;54.088;13.446;2024-01-15T01:30:47;1.90;99.90
10143;DHT22;5112;54.088;13.446;2024-01-15T01:40:50;2.00;99.90
10143;DHT22;5112;54.088;13.446;2024-01-15T01:50:52;2.00;99.90
10143;DHT22;5112;54.088;13.446;2024-01-15T02:00:56;2.10;99.90
10143;DHT22;5112;54.088;13.446;2024-01-15T02:10:59;2.20;99.90
10143;DHT22;5112;54.088;13.446;2024-01-15T02:21:02;2.20;99.90
10143;DHT22;5112;54.088;13.446;2024-01-15T02:31:05;2.10;99.90
10143;DHT22;5112;54.088;13.446;2024-01-15T02:41:07;2.30;99.90
10143;DHT22;5112;54.088;13.446;2024-01-15T02:51:10;2.40;99.90
10143;DHT22;5112;54.088;13.446;2024-01-15T03:01:11;2.30;99.90
10143;DHT22;5112;54.088;13.446;2024-01-15T03:11:14;2.20;99.90
10143;DHT22;5112;54.088;13.446;2024-01-15T03:21:16;2.10;99.90
10143;DHT22;5112;54.088;13.446;2024-01-15T03:31:19;2.20;99.90
10143;DHT22;5112;54.088;13.446;2024-01-15T03:41:20;2.30;99.90
10143;DHT22;5112;54.088;13.446;2024-01-15T03:51:24;2.40;99.90
10143;DHT22;5112;54.088;13.446;2024-01-15T04:01:26;2.30;99.90
10143;DHT22;5112;54.088;13.446;2024-01-15T04:11:29;2.40;99.90
10143;DHT22;5112;54.088;13.446;2024-01-15T04:21:30;2.40;99.90
10143;DHT22;5112;54.088;13.446;2024-01-15T04:31:34;2.10;99.90
10143;DHT22;5112;54.088;13.446;2024-01-15T04:41:35;2.10;99.90
10143;DHT22;5112;54.088;13.446;2024-01-15T04:51:38;2.10;99.90
10143;DHT22;5112;54.088;13.446;2024-01-15T05:01:40;1.90;99.90
10143;DHT22;5112;54.088;13.446;2024-01-15T05:11:43;2.00;99.90
10143;DHT22;5112;54.088;13.446;2024-01-15T05:21:44;2.10;99.90
10143;DHT22;5112;54.088;13.446;2024-01-15T05:31:47;2.20;99.90
10143;DHT22;5112;54.088;13.446;2024-01-15T05:41:49;2.10;99.90
10143;DHT22;5112;54.088;13.446;2024-01-15T05:51:52;2.20;99.90
10143;DHT22;5112;54.088;13.446;2024-01-15T06:01:53;2.10;99.90
10143;DHT22;5112;54.088;13.446;2024-01-15T06:11:56;2.10;99.90
10143;DHT22;5112;54.088;13.446;2024-01-15T06:21:58;2.30;99.90
10143;DHT22;5112;54.088;13.446;2024-01-15T06:32:01;2.20;99.90
10143;DHT22;5112;54.088;13.446;2024-01-15T06:42:04;1.80;99.90
10143;DHT22;5112;54.088;13.446;2024-01-15T06:52:07;1.60;99.90
10143;DHT22;5112;54.088;13.446;2024-01-15T07:02:09;1.40;99.90
10143;DHT22;5112;54.088;13.446;2024-01-15T07:12:12;1.50;99.90
10143;DHT22;5112;54.088;13.446;2024-01-15T07:22:13;1.60;99.90
10143;DHT22;5112;54.088;13.446;2024-01-15T07:32:18;1.60;99.90
10143;DHT22;5112;54.088;13.446;2024-01-15T07:42:21;1.50;99.90
10143;DHT22;5112;54.088;13.446;2024-01-15T07:52:23;1.60;99.90
10143;DHT22;5112;54.088;13.446;2024-01-15T08:02:25;1.80;99.90
10143;DHT22;5112;54.088;13.446;2024-01-15T08:12:28;1.70;99.90
10143;DHT22;5112;54.088;13.446;2024-01-15T08:22:30;1.70;99.90
10143;DHT22;5112;54.088;13.446;2024-01-15T08:32:33;1.70;99.90
10143;DHT22;5112;54.088;13.446;2024-01-15T08:42:36;1.70;99.90
10143;DHT22;5112;54.088;13.446;2024-01-15T08:52:39;1.60;99.90
10143;DHT22;5112;54.088;13.446;2024-01-15T09:02:41;1.60;99.90
10143;DHT22;5112;54.088;13.446;2024-01-15T09:12:44;1.50;99.90
10143;DHT22;5112;54.088;13.446;2024-01-15T09:22:46;1.40;99.90
10143;DHT22;5112;54.088;13.446;2024-01-15T09:32:49;1.40;99.90
10143;DHT22;5112;54.088;13.446;2024-01-15T09:42:51;1.30;99.90
10143;DHT22;5112;54.088;13.446;2024-01-15T09:52:55;1.30;99.90
10143;DHT22;5112;54.088;13.446;2024-01-15T10:02:58;1.20;99.90
10143;DHT22;5112;54.088;13.446;2024-01-15T10:13:03;1.20;99.90
10143;DHT22;5112;54.088;13.446;2024-01-15T10:23:07;1.10;99.90
10143;DHT22;5112;54.088;13.446;2024-01-15T10:33:10;1.00;99.90
10143;DHT22;5112;54.088;13.446;2024-01-15T10:43:12;1.00;99.90
10143;DHT22;5112;54.088;13.446;2024-01-15T10:53:16;1.00;99.90
10143;DHT22;5112;54.088;13.446;2024-01-15T11:03:18;0.80;99.90
10143;DHT22;5112;54.088;13.446;2024-01-15T11:13:22;0.50;99.90
10143;DHT22;5112;54.088;13.446;2024-01-15T11:23:41;0.60;99.90
10143;DHT22;5112;54.088;13.446;2024-01-15T11:33:49;0.60;99.90
10143;DHT22;5112;54.088;13.446;2024-01-15T11:43:52;0.60;99.90
10143;DHT22;5112;54.088;13.446;2024-01-15T11:53:58;0.60;99.90
10143;DHT22;5112;54.088;13.446;2024-01-15T12:04:03;0.60;99.90
10143;DHT22;5112;54.088;13.446;2024-01-15T12:14:06;0.70;99.90
10143;DHT22;5112;54.088;13.446;2024-01-15T12:24:08;0.70;99.90
10143;DHT22;5112;54.088;13.446;2024-01-15T12:34:11;0.70;99.90
10143;DHT22;5112;54.088;13.446;2024-01-15T12:44:14;0.60;99.90
10143;DHT22;5112;54.088;13.446;2024-01-15T12:54:17;0.70;99.90
10143;DHT22;5112;54.088;13.446;2024-01-15T13:04:22;0.60;99.90
10143;DHT22;5112;54.088;13.446;2024-01-15T13:14:25;0.60;99.90
10143;DHT22;5112;54.088;13.446;2024-01-15T13:24:27;0.60;99.90
10143;DHT22;5112;54.088;13.446;2024-01-15T13:34:30;0.50;99.90
10143;DHT22;5112;54.088;13.446;2024-01-15T13:44:32;0.60;99.90
10143;DHT22;5112;54.088;13.446;2024-01-15T13:54:35;0.60;99.90
10143;DHT22;5112;54.088;13.446;2024-01-15T14:04:37;0.50;99.90
10143;DHT22;5112;54.088;13.446;2024-01-15T14:14:40;0.60;99.90
10143;DHT22;5112;54.088;13.446;2024-01-15T14:24:41;0.50;99.90
10143;DHT22;5112;54.088;13.446;2024-01-15T14:34:45;0.40;99.90
10143;DHT22;5112;54.088;13.446;2024-01-15T14:44:47;0.40;99.90
10143;DHT22;5112;54.088;13.446;2024-01-15T14:54:50;0.40;99.90
10143;DHT22;5112;54.088;13.446;2024-01-15T15:04:51;0.40;99.90
10143;DHT22;5112;54.088;13.446;2024-01-15T15:14:54;0.30;99.90
10143;DHT22;5112;54.088;13.446;2024-01-15T15:24:56;0.30;99.90
10143;DHT22;5112;54.088;13.446;2024-01-15T15:34:59;0.20;99.90
10143;DHT22;5112;54.088;13.446;2024-01-15T15:45:01;0.20;99.90
10143;DHT22;5112;54.088;13.446;2024-01-15T15:55:05;0.30;99.90
10143;DHT22;5112;54.088;13.446;2024-01-15T16:05:08;0.20;99.90
10143;DHT22;5112;54.088;13.446;2024-01-15T16:15:19;0.20;99.90
10143;DHT22;5112;54.088;13.446;2024-01-15T16:25:21;0.20;99.90
10143;DHT22;5112;54.088;13.446;2024-01-15T16:35:24;0.20;99.90
10143;DHT22;5112;54.088;13.446;2024-01-15T16:45:25;0.20;99.90
10143;DHT22;5112;54.088;13.446;2024-01-15T16:55:30;0.10;99.90
10143;DHT22;5112;54.088;13.446;2024-01-15T17:05:32;0.10;99.90
10143;DHT22;5112;54.088;13.446;2024-01-15T17:15:35;0.20;99.90
10143;DHT22;5112;54.088;13.446;2024-01-15T17:25:37;0.00;99.90
10143;DHT22;5112;54.088;13.446;2024-01-15T17:35:44;-0.10;99.90
10143;DHT22;5112;54.088;13.446;2024-01-15T17:45:51;-0.30;99.90
10143;DHT22;5112;54.088;13.446;2024-01-15T17:55:56;-0.20;99.90
10143;DHT22;5112;54.088;13.446;2024-01-15T18:05:59;-0.30;99.90
10143;DHT22;5112;54.088;13.446;2024-01-15T18:16:03;-0.20;99.90
10143;DHT22;5112;54.088;13.446;2024-01-15T18:26:04;-0.30;99.90
10143;DHT22;5112;54.088;13.446;2024-01-15T18:36:08;-0.40;99.90
10143;DHT22;5112;54.088;13.446;2024-01-15T18:46:11;-0.50;99.90
10143;DHT22;5112;54.088;13.446;2024-01-15T18:56:14;-0.40;99.90
10143;DHT22;5112;54.088;13.446;2024-01-15T19:06:16;-0.30;99.90
10143;DHT22;5112;54.088;13.446;2024-01-15T19:16:20;-0.40;99.90
10143;DHT22;5112;54.088;13.446;2024-01-15T19:26:22;-0.30;99.90
10143;DHT22;5112;54.088;13.446;2024-01-15T19:36:25;-0.30;99.90
10143;DHT22;5112;54.088;13.446;2024-01-15T19:46:27;-0.40;99.90
10143;DHT22;5112;54.088;13.446;2024-01-15T19:56:30;-0.50;99.90
10143;DHT22;5112;54.088;13.446;2024-01-15T20:06:34;-0.50;99.90
10143;DHT22;5112;54.088;13.446;2024-01-15T20:16:37;-0.50;99.90
10143;DHT22;5112;54.088;13.446;2024-01-15T20:26:39;-0.50;99.90
10143;DHT22;5112;54.088;13.446;2024-01-15T20:36:42;-0.40;99.90
10143;DHT22;5112;54.088;13.446;2024-01-15T20:46:44;-0.50;99.90
10143;DHT22;5112;54.088;13.446;2024-01-15T20:56:47;-0.50;99.90
10143;DHT22;5112;54.088;13.446;2024-01-15T21:06:48;-0.50;99.90
10143;DHT22;5112;54.088;13.446;2024-01-15T21:16:52;-0.60;99.90
10143;DHT22;5112;54.088;13.446;2024-01-15T21:26:54;-0.50;99.90
10143;DHT22;5112;54.088;13.446;2024-01-15T21:36:59;-0.50;99.90
10143;DHT22;5112;54.088;13.446;2024-01-15T21:47:00;-0.60;99.90
10143;DHT22;5112;54.088;13.446;2024-01-15T21:57:04;-0.50;99.90
10143;DHT22;5112;54.088;13.446;2024-01-15T22:07:05;-0.60;99.90
10143;DHT22;5112;54.088;13.446;2024-01-15T22:17:09;-0.60;99.90
10143;DHT22;5112;54.088;13.446;2024-01-15T22:27:12;-0.60;99.90
10143;DHT22;5112;54.088;13.446;2024-01-15T22:37:15;-0.70;99.90
10143;DHT22;5112;54.088;13.446;2024-01-15T22:47:16;-0.70;99.90
10143;DHT22;5112;54.088;13.446;2024-01-15T22:57:19;-0.70;99.90
10143;DHT22;5112;54.088;13.446;2024-01-15T23:07:21;-0.70;99.90
10143;DHT22;5112;54.088;13.446;2024-01-15T23:17:24;-0.70;99.90
10143;DHT22;5112;54.088;13.446;2024-01-15T23:27:26;-0.70;99.90
10143;DHT22;5112;54.088;13.446;2024-01-15T23:37:29;-0.70;99.90
10143;DHT22;5112;54.088;13.446;2024-01-15T23:47:30;-0.70;99.90
10143;DHT22;5112;54.088;13.446;2024-01-15T23:57:34;-0.70;99.90
